Aviation Digital Data Service (ADDS)

Output produced by METARs form (1852 UTC 16 October 2021)
found at http://www.aviationweather.gov/metar/data/
 
METAR text: RJSK 161200Z VRB01KT 8000 -RA FEW002 SCT006 BKN012 12/12 Q1010
Conditions at: RJSK (AKITA AIRPORT , JP) observed 1200 UTC 16 October 2021
Temperature: 12.0°C (54°F)
Dewpoint: 12.0°C (54°F) [RH = 100%]
Pressure (altimeter): 29.82 inches Hg (1010.0 mb)
Winds: variable direction winds at 1 MPH (1 knots; 0.5 m/s)
Visibility: 5 miles ( 8 km)
Ceiling: 1200 feet AGL
Clouds: few clouds at 200 feet AGL
scattered clouds at 600 feet AGL
broken clouds at 1200 feet AGL
Weather: -RA  (light rain)

METAR text: RJSK 161100Z 14004KT 8000 -RA FEW001 SCT030 BKN060 12/12 Q1010
Conditions at: RJSK (AKITA AIRPORT , JP) observed 1100 UTC 16 October 2021
Temperature: 12.0°C (54°F)
Dewpoint: 12.0°C (54°F) [RH = 100%]
Pressure (altimeter): 29.82 inches Hg (1010.0 mb)
Winds: from the SE (140 degrees) at 5 MPH (4 knots; 2.1 m/s)
Visibility: 5 miles ( 8 km)
Ceiling: 6000 feet AGL
Clouds: few clouds at 100 feet AGL
scattered clouds at 3000 feet AGL
broken clouds at 6000 feet AGL
Weather: -RA  (light rain)

METAR text: RJSK 161000Z 12005KT 8000 -RA FEW002 SCT040 BKN050 12/12 Q1011
Conditions at: RJSK (AKITA AIRPORT , JP) observed 1000 UTC 16 October 2021
Temperature: 12.0°C (54°F)
Dewpoint: 12.0°C (54°F) [RH = 100%]
Pressure (altimeter): 29.85 inches Hg (1011.0 mb)
Winds: from the ESE (120 degrees) at 6 MPH (5 knots; 2.6 m/s)
Visibility: 5 miles ( 8 km)
Ceiling: 5000 feet AGL
Clouds: few clouds at 200 feet AGL
scattered clouds at 4000 feet AGL
broken clouds at 5000 feet AGL
Weather: -RA  (light rain)

METAR text: RJSK 160900Z 11004KT 8000 -RA FEW002 SCT010 BKN030 12/11 Q1011
Conditions at: RJSK (AKITA AIRPORT , JP) observed 0900 UTC 16 October 2021
Temperature: 12.0°C (54°F)
Dewpoint: 11.0°C (52°F) [RH = 94%]
Pressure (altimeter): 29.85 inches Hg (1011.0 mb)
Winds: from the ESE (110 degrees) at 5 MPH (4 knots; 2.1 m/s)
Visibility: 5 miles ( 8 km)
Ceiling: 3000 feet AGL
Clouds: few clouds at 200 feet AGL
scattered clouds at 1000 feet AGL
broken clouds at 3000 feet AGL
Weather: -RA  (light rain)

METAR text: RJSK 160800Z 09004KT 6000 -RA FEW002 SCT010 BKN020 12/11 Q1011
Conditions at: RJSK (AKITA AIRPORT , JP) observed 0800 UTC 16 October 2021
Temperature: 12.0°C (54°F)
Dewpoint: 11.0°C (52°F) [RH = 94%]
Pressure (altimeter): 29.85 inches Hg (1011.0 mb)
Winds: from the E (90 degrees) at 5 MPH (4 knots; 2.1 m/s)
Visibility: 4 miles ( 6 km)
Ceiling: 2000 feet AGL
Clouds: few clouds at 200 feet AGL
scattered clouds at 1000 feet AGL
broken clouds at 2000 feet AGL
Weather: -RA  (light rain)

METAR text: RJSK 160700Z 03004KT 350V070 4000 -RA BR FEW002 SCT004 BKN015 12/11 Q1012
Conditions at: RJSK (AKITA AIRPORT , JP) observed 0700 UTC 16 October 2021
Temperature: 12.0°C (54°F)
Dewpoint: 11.0°C (52°F) [RH = 94%]
Pressure (altimeter): 29.88 inches Hg (1012.0 mb)
Winds: from the NNE (30 degrees) at 5 MPH (4 knots; 2.1 m/s)
Visibility: 2.49 miles (4.01 km)
Ceiling: 1500 feet AGL
Clouds: few clouds at 200 feet AGL
scattered clouds at 400 feet AGL
broken clouds at 1500 feet AGL
Weather: -RA BR  (light rain, mist)

METAR text: RJSK 160600Z 06004KT 030V090 4000 -RA BR FEW002 SCT004 BKN015 12/11 Q1012
Conditions at: RJSK (AKITA AIRPORT , JP) observed 0600 UTC 16 October 2021
Temperature: 12.0°C (54°F)
Dewpoint: 11.0°C (52°F) [RH = 94%]
Pressure (altimeter): 29.88 inches Hg (1012.0 mb)
Winds: from the ENE (60 degrees) at 5 MPH (4 knots; 2.1 m/s)
Visibility: 2.49 miles (4.01 km)
Ceiling: 1500 feet AGL
Clouds: few clouds at 200 feet AGL
scattered clouds at 400 feet AGL
broken clouds at 1500 feet AGL
Weather: -RA BR  (light rain, mist)

METAR text: RJSK 160500Z 09004KT 050V110 4500 -RA BR FEW002 SCT004 BKN040 12/11 Q1013
Conditions at: RJSK (AKITA AIRPORT , JP) observed 0500 UTC 16 October 2021
Temperature: 12.0°C (54°F)
Dewpoint: 11.0°C (52°F) [RH = 94%]
Pressure (altimeter): 29.91 inches Hg (1013.0 mb)
Winds: from the E (90 degrees) at 5 MPH (4 knots; 2.1 m/s)
Visibility: 2.80 miles (4.51 km)
Ceiling: 4000 feet AGL
Clouds: few clouds at 200 feet AGL
scattered clouds at 400 feet AGL
broken clouds at 4000 feet AGL
Weather: -RA BR  (light rain, mist)

METAR text: RJSK 160400Z 10004KT 070V140 4500 -RA BR FEW000 SCT004 BKN045 12/11 Q1014
Conditions at: RJSK (AKITA AIRPORT , JP) observed 0400 UTC 16 October 2021
Temperature: 12.0°C (54°F)
Dewpoint: 11.0°C (52°F) [RH = 94%]
Pressure (altimeter): 29.94 inches Hg (1014.0 mb)
Winds: from the E (100 degrees) at 5 MPH (4 knots; 2.1 m/s)
Visibility: 2.80 miles (4.51 km)
Ceiling: 4500 feet AGL
Clouds: few clouds at 0 feet AGL
scattered clouds at 400 feet AGL
broken clouds at 4500 feet AGL
Weather: -RA BR  (light rain, mist)

METAR text: RJSK 160315Z 10006KT 5000 -RA BR FEW000 SCT004 BKN050 12/11 Q1014 RMK 1ST000 3ST004 6SC050 A2997
Conditions at: RJSK (AKITA AIRPORT , JP) observed 0315 UTC 16 October 2021
Temperature: 12.0°C (54°F)
Dewpoint: 11.0°C (52°F) [RH = 94%]
Pressure (altimeter): 29.94 inches Hg (1014.0 mb)
Winds: from the E (100 degrees) at 7 MPH (6 knots; 3.1 m/s)
Visibility: 3 miles ( 5 km)
Ceiling: 5000 feet AGL
Clouds: few clouds at 0 feet AGL
scattered clouds at 400 feet AGL
broken clouds at 5000 feet AGL
Weather: -RA BR  (light rain, mist)

METAR text: RJSK 160300Z 10005KT 4500 -RA BR FEW000 SCT040 BKN050 12/11 Q1015
Conditions at: RJSK (AKITA AIRPORT , JP) observed 0300 UTC 16 October 2021
Temperature: 12.0°C (54°F)
Dewpoint: 11.0°C (52°F) [RH = 94%]
Pressure (altimeter): 29.97 inches Hg (1015.0 mb)
Winds: from the E (100 degrees) at 6 MPH (5 knots; 2.6 m/s)
Visibility: 2.80 miles (4.51 km)
Ceiling: 5000 feet AGL
Clouds: few clouds at 0 feet AGL
scattered clouds at 4000 feet AGL
broken clouds at 5000 feet AGL
Weather: -RA BR  (light rain, mist)

METAR text: RJSK 160200Z 12004KT 9999 -RA FEW000 SCT040 BKN060 12/11 Q1016
Conditions at: RJSK (AKITA AIRPORT , JP) observed 0200 UTC 16 October 2021
Temperature: 12.0°C (54°F)
Dewpoint: 11.0°C (52°F) [RH = 94%]
Pressure (altimeter): 30.00 inches Hg (1016.0 mb)
Winds: from the ESE (120 degrees) at 5 MPH (4 knots; 2.1 m/s)
Visibility: 6 or more miles (10+ km)
Ceiling: 6000 feet AGL
Clouds: few clouds at 0 feet AGL
scattered clouds at 4000 feet AGL
broken clouds at 6000 feet AGL
Weather: -RA  (light rain)

METAR text: RJSK 160100Z 06005KT 9999 -RA FEW000 SCT060 BKN080 12/10 Q1017
Conditions at: RJSK (AKITA AIRPORT , JP) observed 0100 UTC 16 October 2021
Temperature: 12.0°C (54°F)
Dewpoint: 10.0°C (50°F) [RH = 88%]
Pressure (altimeter): 30.03 inches Hg (1017.0 mb)
Winds: from the ENE (60 degrees) at 6 MPH (5 knots; 2.6 m/s)
Visibility: 6 or more miles (10+ km)
Ceiling: 8000 feet AGL
Clouds: few clouds at 0 feet AGL
scattered clouds at 6000 feet AGL
broken clouds at 8000 feet AGL
Weather: -RA  (light rain)

METAR text: RJSK 160000Z VRB02KT 9999 -RA FEW000 SCT060 BKN090 13/11 Q1018
Conditions at: RJSK (AKITA AIRPORT , JP) observed 0000 UTC 16 October 2021
Temperature: 13.0°C (55°F)
Dewpoint: 11.0°C (52°F) [RH = 88%]
Pressure (altimeter): 30.06 inches Hg (1018.0 mb)
Winds: variable direction winds at 2 MPH (2 knots; 1.0 m/s)
Visibility: 6 or more miles (10+ km)
Ceiling: 9000 feet AGL
Clouds: few clouds at 0 feet AGL
scattered clouds at 6000 feet AGL
broken clouds at 9000 feet AGL
Weather: -RA  (light rain)

METAR text: RJSK 152300Z 17004KT 120V200 9999 -RA FEW000 SCT070 BKN090 12/12 Q1017
Conditions at: RJSK (AKITA AIRPORT , JP) observed 2300 UTC 15 October 2021
Temperature: 12.0°C (54°F)
Dewpoint: 12.0°C (54°F) [RH = 100%]
Pressure (altimeter): 30.03 inches Hg (1017.0 mb)
Winds: from the S (170 degrees) at 5 MPH (4 knots; 2.1 m/s)
Visibility: 6 or more miles (10+ km)
Ceiling: 9000 feet AGL
Clouds: few clouds at 0 feet AGL
scattered clouds at 7000 feet AGL
broken clouds at 9000 feet AGL
Weather: -RA  (light rain)

METAR text: RJSK 152221Z 02004KT 340V060 9999 -SHRA PRFG FEW000 SCT002 BKN060 12/11 Q1017 RMK 1ST000 3ST002 5CU060 A3004 4000E-SE
Conditions at: RJSK (AKITA AIRPORT , JP) observed 2221 UTC 15 October 2021
Temperature: 12.0°C (54°F)
Dewpoint: 11.0°C (52°F) [RH = 94%]
Pressure (altimeter): 30.03 inches Hg (1017.0 mb)
Winds: from the NNE (20 degrees) at 5 MPH (4 knots; 2.1 m/s)
Visibility: 6 or more miles (10+ km)
Ceiling: 6000 feet AGL
Clouds: few clouds at 0 feet AGL
scattered clouds at 200 feet AGL
broken clouds at 6000 feet AGL
Weather: -SHRA PRFG  (light rain showers, partial fog)

METAR text: RJSK 152214Z 03003KT 330V120 9999 PRFG FEW000 SCT002 BKN006 12/11 Q1017 RMK 1ST000 3ST002 5ST006 A3005 4000E-SE
Conditions at: RJSK (AKITA AIRPORT , JP) observed 2214 UTC 15 October 2021
Temperature: 12.0°C (54°F)
Dewpoint: 11.0°C (52°F) [RH = 94%]
Pressure (altimeter): 30.03 inches Hg (1017.0 mb)
Winds: from the NNE (30 degrees) at 3 MPH (3 knots; 1.5 m/s)
Visibility: 6 or more miles (10+ km)
Ceiling: 600 feet AGL
Clouds: few clouds at 0 feet AGL
scattered clouds at 200 feet AGL
broken clouds at 600 feet AGL
Weather: PRFG  (partial fog)

METAR text: RJSK 152200Z 10003KT 040V160 7000 PRFG FEW000 SCT060 BKN090 12/11 Q1017
Conditions at: RJSK (AKITA AIRPORT , JP) observed 2200 UTC 15 October 2021
Temperature: 12.0°C (54°F)
Dewpoint: 11.0°C (52°F) [RH = 94%]
Pressure (altimeter): 30.03 inches Hg (1017.0 mb)
Winds: from the E (100 degrees) at 3 MPH (3 knots; 1.5 m/s)
Visibility: 4 miles ( 7 km)
Ceiling: 9000 feet AGL
Clouds: few clouds at 0 feet AGL
scattered clouds at 6000 feet AGL
broken clouds at 9000 feet AGL
Weather: PRFG  (partial fog)

METAR text: RJSK 152140Z 12005KT 9999 FEW000 SCT060 BKN090 12/12 Q1017 RMK 1ST000 3SC060 7AC090 A3003
Conditions at: RJSK (AKITA AIRPORT , JP) observed 2140 UTC 15 October 2021
Temperature: 12.0°C (54°F)
Dewpoint: 12.0°C (54°F) [RH = 100%]
Pressure (altimeter): 30.03 inches Hg (1017.0 mb)
Winds: from the ESE (120 degrees) at 6 MPH (5 knots; 2.6 m/s)
Visibility: 6 or more miles (10+ km)
Ceiling: 9000 feet AGL
Clouds: few clouds at 0 feet AGL
scattered clouds at 6000 feet AGL
broken clouds at 9000 feet AGL
Weather: no significant weather observed at this time

METAR text: RJSK 151242Z 09001KT 0200 R28/0275V0550D FG VV002 14/14 Q1018 RMK A3008
Conditions at: RJSK (AKITA AIRPORT , JP) observed 1242 UTC 15 October 2021
Temperature: 14.0°C (57°F)
Dewpoint: 14.0°C (57°F) [RH = 100%]
Pressure (altimeter): 30.06 inches Hg (1018.0 mb)
Winds: from the E (90 degrees) at 1 MPH (1 knots; 0.5 m/s)
Visibility: 0.12 miles (0.19 km)
Ceiling: indefinite ceiling with vertical visibility of 200 feet AGL
Clouds: obscured sky
Weather: FG  (fog)

METAR text: RJSK 151236Z 11002KT 0800 R28/0450V1000D FG SCT000 BKN002 14/14 Q1018 RMK 3ST000 7ST002 A3007
Conditions at: RJSK (AKITA AIRPORT , JP) observed 1236 UTC 15 October 2021
Temperature: 14.0°C (57°F)
Dewpoint: 14.0°C (57°F) [RH = 100%]
Pressure (altimeter): 30.06 inches Hg (1018.0 mb)
Winds: from the ESE (110 degrees) at 2 MPH (2 knots; 1.0 m/s)
Visibility: 0.50 miles (0.80 km)
Ceiling: 200 feet AGL
Clouds: scattered clouds at 0 feet AGL
broken clouds at 200 feet AGL
Weather: FG  (fog)

METAR text: RJSK 151232Z 11002KT 1600 R28/0650VP2000D BCFG BR FEW000 BKN002 BKN005 14/14 Q1018 RMK 1ST000 5ST002 6ST005 A3007 0700NE-SE
Conditions at: RJSK (AKITA AIRPORT , JP) observed 1232 UTC 15 October 2021
Temperature: 14.0°C (57°F)
Dewpoint: 14.0°C (57°F) [RH = 100%]
Pressure (altimeter): 30.06 inches Hg (1018.0 mb)
Winds: from the ESE (110 degrees) at 2 MPH (2 knots; 1.0 m/s)
Visibility: 0.99 miles (1.59 km)
Ceiling: 200 feet AGL
Clouds: few clouds at 0 feet AGL
broken clouds at 200 feet AGL
broken clouds at 500 feet AGL
Weather: BCFG BR  (patches of fog, mist)

METAR text: RJSK 151227Z 12001KT 2000 R28/0800VP2000D BCFG BR FEW000 BKN002 BKN005 14/14 Q1018 RMK 1ST000 5ST002 6ST005 A3008 0700NE-SE
Conditions at: RJSK (AKITA AIRPORT , JP) observed 1227 UTC 15 October 2021
Temperature: 14.0°C (57°F)
Dewpoint: 14.0°C (57°F) [RH = 100%]
Pressure (altimeter): 30.06 inches Hg (1018.0 mb)
Winds: from the ESE (120 degrees) at 1 MPH (1 knots; 0.5 m/s)
Visibility: 1.24 miles (2.00 km)
Ceiling: 200 feet AGL
Clouds: few clouds at 0 feet AGL
broken clouds at 200 feet AGL
broken clouds at 500 feet AGL
Weather: BCFG BR  (patches of fog, mist)

METAR text: RJSK 151200Z 12001KT 4000 R28/1200VP2000U PRFG BR FEW000 BKN002 BKN006 14/14 Q1018
Conditions at: RJSK (AKITA AIRPORT , JP) observed 1200 UTC 15 October 2021
Temperature: 14.0°C (57°F)
Dewpoint: 14.0°C (57°F) [RH = 100%]
Pressure (altimeter): 30.06 inches Hg (1018.0 mb)
Winds: from the ESE (120 degrees) at 1 MPH (1 knots; 0.5 m/s)
Visibility: 2.49 miles (4.01 km)
Ceiling: 200 feet AGL
Clouds: few clouds at 0 feet AGL
broken clouds at 200 feet AGL
broken clouds at 600 feet AGL
Weather: PRFG BR  (partial fog, mist)

METAR text: RJSK 151149Z 10002KT 8000 R28/0900VP2000D PRFG FEW000 BKN002 BKN080 14/14 Q1018 RMK 1ST000 5ST002 6AC080 A3008 0800NE-SE
Conditions at: RJSK (AKITA AIRPORT , JP) observed 1149 UTC 15 October 2021
Temperature: 14.0°C (57°F)
Dewpoint: 14.0°C (57°F) [RH = 100%]
Pressure (altimeter): 30.06 inches Hg (1018.0 mb)
Winds: from the E (100 degrees) at 2 MPH (2 knots; 1.0 m/s)
Visibility: 5 miles ( 8 km)
Ceiling: 200 feet AGL
Clouds: few clouds at 0 feet AGL
broken clouds at 200 feet AGL
broken clouds at 8000 feet AGL
Weather: PRFG  (partial fog)

METAR text: RJSK 151100Z VRB02KT 9999 R28/P2000N PRFG FEW000 SCT002 BKN080 14/14 Q1018
Conditions at: RJSK (AKITA AIRPORT , JP) observed 1100 UTC 15 October 2021
Temperature: 14.0°C (57°F)
Dewpoint: 14.0°C (57°F) [RH = 100%]
Pressure (altimeter): 30.06 inches Hg (1018.0 mb)
Winds: variable direction winds at 2 MPH (2 knots; 1.0 m/s)
Visibility: 6 or more miles (10+ km)
Ceiling: 8000 feet AGL
Clouds: few clouds at 0 feet AGL
scattered clouds at 200 feet AGL
broken clouds at 8000 feet AGL
Weather: PRFG  (partial fog)

METAR text: RJSK 151000Z VRB01KT 9999 FEW005 SCT060 BKN080 15/14 Q1017
Conditions at: RJSK (AKITA AIRPORT , JP) observed 1000 UTC 15 October 2021
Temperature: 15.0°C (59°F)
Dewpoint: 14.0°C (57°F) [RH = 94%]
Pressure (altimeter): 30.03 inches Hg (1017.0 mb)
Winds: variable direction winds at 1 MPH (1 knots; 0.5 m/s)
Visibility: 6 or more miles (10+ km)
Ceiling: 8000 feet AGL
Clouds: few clouds at 500 feet AGL
scattered clouds at 6000 feet AGL
broken clouds at 8000 feet AGL
Weather: no significant weather observed at this time

METAR text: RJSK 150900Z VRB01KT 9999 FEW005 SCT060 BKN080 15/14 Q1017
Conditions at: RJSK (AKITA AIRPORT , JP) observed 0900 UTC 15 October 2021
Temperature: 15.0°C (59°F)
Dewpoint: 14.0°C (57°F) [RH = 94%]
Pressure (altimeter): 30.03 inches Hg (1017.0 mb)
Winds: variable direction winds at 1 MPH (1 knots; 0.5 m/s)
Visibility: 6 or more miles (10+ km)
Ceiling: 8000 feet AGL
Clouds: few clouds at 500 feet AGL
scattered clouds at 6000 feet AGL
broken clouds at 8000 feet AGL
Weather: no significant weather observed at this time

METAR text: RJSK 150800Z 27003KT 9999 FEW025 SCT060 BKN080 16/15 Q1016
Conditions at: RJSK (AKITA AIRPORT , JP) observed 0800 UTC 15 October 2021
Temperature: 16.0°C (61°F)
Dewpoint: 15.0°C (59°F) [RH = 94%]
Pressure (altimeter): 30.00 inches Hg (1016.0 mb)
Winds: from the W (270 degrees) at 3 MPH (3 knots; 1.5 m/s)
Visibility: 6 or more miles (10+ km)
Ceiling: 8000 feet AGL
Clouds: few clouds at 2500 feet AGL
scattered clouds at 6000 feet AGL
broken clouds at 8000 feet AGL
Weather: no significant weather observed at this time

METAR text: RJSK 150700Z 28004KT 9999 FEW025 SCT060 BKN080 16/14 Q1015
Conditions at: RJSK (AKITA AIRPORT , JP) observed 0700 UTC 15 October 2021
Temperature: 16.0°C (61°F)
Dewpoint: 14.0°C (57°F) [RH = 88%]
Pressure (altimeter): 29.97 inches Hg (1015.0 mb)
Winds: from the W (280 degrees) at 5 MPH (4 knots; 2.1 m/s)
Visibility: 6 or more miles (10+ km)
Ceiling: 8000 feet AGL
Clouds: few clouds at 2500 feet AGL
scattered clouds at 6000 feet AGL
broken clouds at 8000 feet AGL
Weather: no significant weather observed at this time

Forecast for: RJSK (AKITA AIRPORT , JP)
Text: TAF RJSK 161706Z 1618/1800 30015KT 8000 -SHRA FEW010 SCT020 BKN030
Forecast period: 1800 UTC 16 October 2021 to 1200 UTC 17 October 2021
Forecast type: FROM: standard forecast or significant change
Winds: from the WNW (300 degrees) at 17 MPH (15 knots; 7.7 m/s)
Visibility: 5 miles (8 km)
Ceiling: 3000 feet AGL
Clouds: few clouds at 1000 feet AGL
scattered clouds at 2000 feet AGL
broken clouds at 3000 feet AGL
Weather: -SHRA  (light rain showers)
Text: TEMPO 1618/1623 3000 SHRA BR FEW005 BKN008 BKN015
Forecast period: 1800 to 2300 UTC 16 October 2021
Forecast type: TEMPORARY: The following changes expected for less than half the time period
Visibility: 1.86 miles (2.99 km)
Ceiling: 800 feet AGL
Clouds: few clouds at 500 feet AGL
broken clouds at 800 feet AGL
broken clouds at 1500 feet AGL
Weather: SHRA BR  (rain showers, mist)
Text: TEMPO 1700/1706 30020G30KT
Forecast period: 0000 to 0600 UTC 17 October 2021
Forecast type: TEMPORARY: The following changes expected for less than half the time period
Winds: from the WNW (300 degrees) at 23 MPH (20 knots; 10.3 m/s)
gusting to 34 MPH (30 knots; 15.4 m/s)
Visibility: missing
Ceiling: unknown
Clouds: missing
Weather: no significant weather forecast for this period
Text: BECMG 1712/1715 14004KT
Forecast period: 1200 UTC 17 October 2021 to 0000 UTC 18 October 2021
Forecast type: BECOMING: Conditions expected to become as follows by 1500 UTC 17 October 2021
Winds: from the SE (140 degrees) at 5 MPH (4 knots; 2.1 m/s)
Visibility: 5 miles (8 km)
Ceiling: 3000 feet AGL
Clouds: few clouds at 1000 feet AGL
scattered clouds at 2000 feet AGL
broken clouds at 3000 feet AGL
Weather: -SHRA  (light rain showers)